sensor_id;sensor_type;location;lat;lon;timestamp;temperature;humidity
23445;DHT22;11895;48.738;9.320;2023-03-14T00:01:49;10.00;99.90
23445;DHT22;11895;48.738;9.320;2023-03-14T00:05:19;9.90;99.90
23445;DHT22;11895;48.738;9.320;2023-03-14T00:08:45;9.80;99.90
23445;DHT22;11895;48.738;9.320;2023-03-14T00:12:11;10.10;99.90
23445;DHT22;11895;48.738;9.320;2023-03-14T00:15:37;9.60;99.90
23445;DHT22;11895;48.738;9.320;2023-03-14T00:19:02;9.50;99.90
23445;DHT22;11895;48.738;9.320;2023-03-14T00:22:35;10.40;99.90
23445;DHT22;11895;48.738;9.320;2023-03-14T00:25:58;10.30;99.90
23445;DHT22;11895;48.738;9.320;2023-03-14T00:29:24;9.80;99.90
23445;DHT22;11895;48.738;9.320;2023-03-14T00:32:50;10.00;99.90
23445;DHT22;11895;48.738;9.320;2023-03-14T00:36:18;10.30;99.90
23445;DHT22;11895;48.738;9.320;2023-03-14T00:39:44;10.20;99.90
23445;DHT22;11895;48.738;9.320;2023-03-14T00:43:10;10.10;99.90
23445;DHT22;11895;48.738;9.320;2023-03-14T00:46:35;11.00;99.90
23445;DHT22;11895;48.738;9.320;2023-03-14T00:50:01;9.40;99.90
23445;DHT22;11895;48.738;9.320;2023-03-14T00:53:28;9.60;99.90
23445;DHT22;11895;48.738;9.320;2023-03-14T01:14:06;10.10;99.90
23445;DHT22;11895;48.738;9.320;2023-03-14T01:38:01;10.10;99.90
23445;DHT22;11895;48.738;9.320;2023-03-14T02:17:28;9.90;99.90
23445;DHT22;11895;48.738;9.320;2023-03-14T03:44:47;9.70;99.90
23445;DHT22;11895;48.738;9.320;2023-03-14T05:20:34;8.90;99.90
23445;DHT22;11895;48.738;9.320;2023-03-14T06:36:59;9.30;99.90
23445;DHT22;11895;48.738;9.320;2023-03-14T06:51:57;9.20;99.90
23445;DHT22;11895;48.738;9.320;2023-03-14T06:59:19;9.20;99.90
23445;DHT22;11895;48.738;9.320;2023-03-14T07:06:47;9.30;99.90
23445;DHT22;11895;48.738;9.320;2023-03-14T07:16:48;9.60;99.90
23445;DHT22;11895;48.738;9.320;2023-03-14T07:19:15;9.80;99.90
23445;DHT22;11895;48.738;9.320;2023-03-14T07:24:15;9.90;99.90
23445;DHT22;11895;48.738;9.320;2023-03-14T07:57:01;10.30;99.90
23445;DHT22;11895;48.738;9.320;2023-03-14T08:04:24;10.40;99.90
23445;DHT22;11895;48.738;9.320;2023-03-14T08:06:52;10.90;99.90
23445;DHT22;11895;48.738;9.320;2023-03-14T08:09:21;10.60;99.90
23445;DHT22;11895;48.738;9.320;2023-03-14T08:11:48;11.00;99.90
23445;DHT22;11895;48.738;9.320;2023-03-14T08:14:15;11.10;99.90
23445;DHT22;11895;48.738;9.320;2023-03-14T08:16:43;11.30;99.90
23445;DHT22;11895;48.738;9.320;2023-03-14T08:19:10;11.20;99.90
23445;DHT22;11895;48.738;9.320;2023-03-14T08:21:37;11.40;99.90
23445;DHT22;11895;48.738;9.320;2023-03-14T08:24:05;11.30;99.90
23445;DHT22;11895;48.738;9.320;2023-03-14T08:26:33;11.10;99.90
23445;DHT22;11895;48.738;9.320;2023-03-14T08:29:00;11.90;99.90
23445;DHT22;11895;48.738;9.320;2023-03-14T08:48:43;12.50;99.90
23445;DHT22;11895;48.738;9.320;2023-03-14T08:51:12;12.60;99.90
23445;DHT22;11895;48.738;9.320;2023-03-14T08:56:18;12.70;99.90
23445;DHT22;11895;48.738;9.320;2023-03-14T10:08:27;13.30;99.90
23445;DHT22;11895;48.738;9.320;2023-03-14T10:10:54;13.40;99.90
23445;DHT22;11895;48.738;9.320;2023-03-14T10:36:52;14.50;99.90
23445;DHT22;11895;48.738;9.320;2023-03-14T10:44:43;15.00;99.90
23445;DHT22;11895;48.738;9.320;2023-03-14T11:05:31;14.60;99.90
23445;DHT22;11895;48.738;9.320;2023-03-14T11:08:40;14.50;99.90
23445;DHT22;11895;48.738;9.320;2023-03-14T11:11:22;14.30;99.90
23445;DHT22;11895;48.738;9.320;2023-03-14T11:33:27;12.40;99.90
23445;DHT22;11895;48.738;9.320;2023-03-14T11:36:07;12.30;99.90
23445;DHT22;11895;48.738;9.320;2023-03-14T11:38:45;12.30;99.90
23445;DHT22;11895;48.738;9.320;2023-03-14T11:41:17;12.20;99.90
23445;DHT22;11895;48.738;9.320;2023-03-14T11:44:34;11.90;99.90
23445;DHT22;11895;48.738;9.320;2023-03-14T11:55:40;11.60;99.90
23445;DHT22;11895;48.738;9.320;2023-03-14T11:58:14;11.50;99.90
23445;DHT22;11895;48.738;9.320;2023-03-14T12:00:47;11.50;99.90
23445;DHT22;11895;48.738;9.320;2023-03-14T12:03:19;11.50;99.90
23445;DHT22;11895;48.738;9.320;2023-03-14T12:14:35;11.70;99.90
23445;DHT22;11895;48.738;9.320;2023-03-14T12:22:56;11.90;99.90
23445;DHT22;11895;48.738;9.320;2023-03-14T12:25:31;11.90;99.90
23445;DHT22;11895;48.738;9.320;2023-03-14T12:30:34;11.90;99.90
23445;DHT22;11895;48.738;9.320;2023-03-14T12:35:39;12.10;99.90
23445;DHT22;11895;48.738;9.320;2023-03-14T12:41:29;12.40;99.90
23445;DHT22;11895;48.738;9.320;2023-03-14T12:44:37;12.50;99.90
23445;DHT22;11895;48.738;9.320;2023-03-14T12:47:48;12.70;99.90
23445;DHT22;11895;48.738;9.320;2023-03-14T12:49:46;12.80;99.90
23445;DHT22;11895;48.738;9.320;2023-03-14T12:52:33;13.10;99.90
23445;DHT22;11895;48.738;9.320;2023-03-14T12:58:05;13.40;99.90
23445;DHT22;11895;48.738;9.320;2023-03-14T13:00:57;13.60;99.90
23445;DHT22;11895;48.738;9.320;2023-03-14T13:12:00;16.40;95.80
23445;DHT22;11895;48.738;9.320;2023-03-14T13:17:01;17.80;93.30
23445;DHT22;11895;48.738;9.320;2023-03-14T13:22:27;16.60;91.40
23445;DHT22;11895;48.738;9.320;2023-03-14T13:25:06;16.60;93.40
23445;DHT22;11895;48.738;9.320;2023-03-14T13:27:37;16.70;90.70
23445;DHT22;11895;48.738;9.320;2023-03-14T13:30:05;16.60;90.60
23445;DHT22;11895;48.738;9.320;2023-03-14T13:33:15;16.70;86.00
23445;DHT22;11895;48.738;9.320;2023-03-14T13:38:32;16.90;84.40
23445;DHT22;11895;48.738;9.320;2023-03-14T13:41:06;16.40;83.70
23445;DHT22;11895;48.738;9.320;2023-03-14T13:43:41;16.50;87.70
23445;DHT22;11895;48.738;9.320;2023-03-14T13:48:59;14.40;85.30
23445;DHT22;11895;48.738;9.320;2023-03-14T13:51:32;14.50;96.10
23445;DHT22;11895;48.738;9.320;2023-03-14T13:56:31;14.70;87.50
23445;DHT22;11895;48.738;9.320;2023-03-14T13:59:00;14.50;86.20
23445;DHT22;11895;48.738;9.320;2023-03-14T14:04:06;13.30;99.50
23445;DHT22;11895;48.738;9.320;2023-03-14T14:06:47;13.50;99.70
23445;DHT22;11895;48.738;9.320;2023-03-14T14:12:00;12.40;99.80
23445;DHT22;11895;48.738;9.320;2023-03-14T14:17:48;11.80;86.50
23445;DHT22;11895;48.738;9.320;2023-03-14T14:23:02;11.80;87.50
23445;DHT22;11895;48.738;9.320;2023-03-14T14:25:32;11.90;85.50
23445;DHT22;11895;48.738;9.320;2023-03-14T14:28:13;11.80;83.60
23445;DHT22;11895;48.738;9.320;2023-03-14T14:30:44;11.70;84.10
23445;DHT22;11895;48.738;9.320;2023-03-14T14:33:15;11.40;84.70
23445;DHT22;11895;48.738;9.320;2023-03-14T14:35:50;11.30;84.20
23445;DHT22;11895;48.738;9.320;2023-03-14T14:38:23;11.40;84.20
23445;DHT22;11895;48.738;9.320;2023-03-14T14:40:51;11.30;86.40
23445;DHT22;11895;48.738;9.320;2023-03-14T14:43:27;11.50;85.90
23445;DHT22;11895;48.738;9.320;2023-03-14T14:45:57;11.50;85.20
23445;DHT22;11895;48.738;9.320;2023-03-14T14:48:25;11.50;85.10
23445;DHT22;11895;48.738;9.320;2023-03-14T14:51:01;11.40;85.80
23445;DHT22;11895;48.738;9.320;2023-03-14T14:56:07;11.40;87.00
23445;DHT22;11895;48.738;9.320;2023-03-14T14:58:46;11.40;89.30
23445;DHT22;11895;48.738;9.320;2023-03-14T15:03:44;11.20;87.60
23445;DHT22;11895;48.738;9.320;2023-03-14T15:06:14;11.40;87.90
23445;DHT22;11895;48.738;9.320;2023-03-14T15:08:43;11.50;87.50
23445;DHT22;11895;48.738;9.320;2023-03-14T15:11:16;11.60;87.60
23445;DHT22;11895;48.738;9.320;2023-03-14T15:13:44;11.70;86.30
23445;DHT22;11895;48.738;9.320;2023-03-14T15:16:11;12.30;84.90
23445;DHT22;11895;48.738;9.320;2023-03-14T15:18:41;12.90;83.70
23445;DHT22;11895;48.738;9.320;2023-03-14T15:21:09;13.90;82.90
23445;DHT22;11895;48.738;9.320;2023-03-14T15:23:37;14.00;81.30
23445;DHT22;11895;48.738;9.320;2023-03-14T15:28:38;14.40;78.80
23445;DHT22;11895;48.738;9.320;2023-03-14T15:36:18;16.60;73.30
23445;DHT22;11895;48.738;9.320;2023-03-14T15:38:54;16.00;74.80
23445;DHT22;11895;48.738;9.320;2023-03-14T15:41:23;14.80;76.40
23445;DHT22;11895;48.738;9.320;2023-03-14T15:43:50;14.20;77.00
23445;DHT22;11895;48.738;9.320;2023-03-14T15:46:18;13.90;79.60
23445;DHT22;11895;48.738;9.320;2023-03-14T15:48:45;14.00;79.20
23445;DHT22;11895;48.738;9.320;2023-03-14T15:51:13;14.00;78.80
23445;DHT22;11895;48.738;9.320;2023-03-14T15:53:41;14.30;78.20
23445;DHT22;11895;48.738;9.320;2023-03-14T15:56:14;14.10;80.50
23445;DHT22;11895;48.738;9.320;2023-03-14T15:58:44;14.00;79.80
23445;DHT22;11895;48.738;9.320;2023-03-14T16:01:15;13.50;80.40
23445;DHT22;11895;48.738;9.320;2023-03-14T16:03:43;13.00;82.70
23445;DHT22;11895;48.738;9.320;2023-03-14T16:06:15;12.80;83.60
23445;DHT22;11895;48.738;9.320;2023-03-14T16:08:43;13.30;83.50
23445;DHT22;11895;48.738;9.320;2023-03-14T16:11:11;13.50;82.40
23445;DHT22;11895;48.738;9.320;2023-03-14T16:13:41;13.10;82.30
23445;DHT22;11895;48.738;9.320;2023-03-14T16:16:08;12.60;83.70
23445;DHT22;11895;48.738;9.320;2023-03-14T16:18:36;12.20;84.60
23445;DHT22;11895;48.738;9.320;2023-03-14T16:21:06;11.80;85.80
23445;DHT22;11895;48.738;9.320;2023-03-14T16:23:40;11.50;86.40
23445;DHT22;11895;48.738;9.320;2023-03-14T16:26:09;11.30;87.40
23445;DHT22;11895;48.738;9.320;2023-03-14T16:28:41;11.10;87.70
23445;DHT22;11895;48.738;9.320;2023-03-14T16:31:09;11.00;88.70
23445;DHT22;11895;48.738;9.320;2023-03-14T16:33:39;11.50;89.50
23445;DHT22;11895;48.738;9.320;2023-03-14T16:36:07;12.20;87.30
23445;DHT22;11895;48.738;9.320;2023-03-14T16:38:39;12.50;85.90
23445;DHT22;11895;48.738;9.320;2023-03-14T16:41:18;12.40;85.40
23445;DHT22;11895;48.738;9.320;2023-03-14T16:43:46;12.00;86.50
23445;DHT22;11895;48.738;9.320;2023-03-14T16:46:18;11.60;87.70
23445;DHT22;11895;48.738;9.320;2023-03-14T16:48:48;11.30;88.20
23445;DHT22;11895;48.738;9.320;2023-03-14T16:51:15;11.10;89.00
23445;DHT22;11895;48.738;9.320;2023-03-14T16:53:43;10.90;90.20
23445;DHT22;11895;48.738;9.320;2023-03-14T16:56:11;10.80;90.50
23445;DHT22;11895;48.738;9.320;2023-03-14T16:58:39;10.80;90.30
23445;DHT22;11895;48.738;9.320;2023-03-14T17:01:06;10.70;90.10
23445;DHT22;11895;48.738;9.320;2023-03-14T17:03:49;10.60;90.40
23445;DHT22;11895;48.738;9.320;2023-03-14T17:06:22;10.60;90.60
23445;DHT22;11895;48.738;9.320;2023-03-14T17:08:52;10.60;91.00
23445;DHT22;11895;48.738;9.320;2023-03-14T17:11:21;10.50;91.20
23445;DHT22;11895;48.738;9.320;2023-03-14T17:13:49;10.40;90.90
23445;DHT22;11895;48.738;9.320;2023-03-14T17:16:16;10.40;91.20
23445;DHT22;11895;48.738;9.320;2023-03-14T17:18:45;10.30;91.60
23445;DHT22;11895;48.738;9.320;2023-03-14T17:21:12;10.40;91.50
23445;DHT22;11895;48.738;9.320;2023-03-14T17:23:39;10.30;91.60
23445;DHT22;11895;48.738;9.320;2023-03-14T17:26:06;10.30;91.50
23445;DHT22;11895;48.738;9.320;2023-03-14T17:28:34;10.20;91.80
23445;DHT22;11895;48.738;9.320;2023-03-14T17:31:05;10.10;92.10
23445;DHT22;11895;48.738;9.320;2023-03-14T17:33:36;10.00;92.30
23445;DHT22;11895;48.738;9.320;2023-03-14T17:36:03;10.00;92.50
23445;DHT22;11895;48.738;9.320;2023-03-14T17:38:33;10.00;92.70
23445;DHT22;11895;48.738;9.320;2023-03-14T17:41:01;10.00;93.10
23445;DHT22;11895;48.738;9.320;2023-03-14T17:43:33;10.00;94.60
23445;DHT22;11895;48.738;9.320;2023-03-14T17:46:00;9.80;95.90
23445;DHT22;11895;48.738;9.320;2023-03-14T17:48:41;9.50;97.00
23445;DHT22;11895;48.738;9.320;2023-03-14T17:51:11;9.20;97.60
23445;DHT22;11895;48.738;9.320;2023-03-14T17:53:42;9.10;98.80
23445;DHT22;11895;48.738;9.320;2023-03-14T17:56:09;9.00;99.50
23445;DHT22;11895;48.738;9.320;2023-03-14T17:58:37;8.90;99.90
23445;DHT22;11895;48.738;9.320;2023-03-14T18:01:23;8.70;99.90
23445;DHT22;11895;48.738;9.320;2023-03-14T18:03:50;8.70;99.90
23445;DHT22;11895;48.738;9.320;2023-03-14T18:06:22;8.60;99.90
23445;DHT22;11895;48.738;9.320;2023-03-14T18:08:49;8.60;99.90
23445;DHT22;11895;48.738;9.320;2023-03-14T18:11:17;8.60;99.90
23445;DHT22;11895;48.738;9.320;2023-03-14T18:13:44;8.70;99.90
23445;DHT22;11895;48.738;9.320;2023-03-14T18:16:11;8.70;99.90
23445;DHT22;11895;48.738;9.320;2023-03-14T18:18:40;8.70;99.90
23445;DHT22;11895;48.738;9.320;2023-03-14T18:21:12;8.70;99.90
23445;DHT22;11895;48.738;9.320;2023-03-14T18:23:39;8.70;99.90
23445;DHT22;11895;48.738;9.320;2023-03-14T18:26:07;8.80;99.90
23445;DHT22;11895;48.738;9.320;2023-03-14T18:28:34;8.70;99.90
23445;DHT22;11895;48.738;9.320;2023-03-14T18:31:05;8.40;99.90
23445;DHT22;11895;48.738;9.320;2023-03-14T18:33:44;7.90;99.90
23445;DHT22;11895;48.738;9.320;2023-03-14T18:36:13;7.40;99.90
23445;DHT22;11895;48.738;9.320;2023-03-14T18:38:41;7.10;99.90
23445;DHT22;11895;48.738;9.320;2023-03-14T18:41:10;6.80;99.90
23445;DHT22;11895;48.738;9.320;2023-03-14T18:43:40;6.60;99.90
23445;DHT22;11895;48.738;9.320;2023-03-14T18:46:08;6.40;99.90
23445;DHT22;11895;48.738;9.320;2023-03-14T18:48:36;6.30;99.90
23445;DHT22;11895;48.738;9.320;2023-03-14T18:51:12;6.30;99.90
23445;DHT22;11895;48.738;9.320;2023-03-14T18:53:42;6.30;99.90
23445;DHT22;11895;48.738;9.320;2023-03-14T18:56:11;6.40;99.90
23445;DHT22;11895;48.738;9.320;2023-03-14T18:58:40;6.50;99.90
23445;DHT22;11895;48.738;9.320;2023-03-14T19:01:07;6.40;99.90
23445;DHT22;11895;48.738;9.320;2023-03-14T19:03:37;6.30;99.90
23445;DHT22;11895;48.738;9.320;2023-03-14T19:06:05;6.30;99.90
23445;DHT22;11895;48.738;9.320;2023-03-14T19:08:35;6.20;99.90
23445;DHT22;11895;48.738;9.320;2023-03-14T19:11:04;6.30;99.90
23445;DHT22;11895;48.738;9.320;2023-03-14T19:13:33;6.30;99.90
23445;DHT22;11895;48.738;9.320;2023-03-14T19:16:01;6.20;99.90
23445;DHT22;11895;48.738;9.320;2023-03-14T19:18:29;6.40;99.90
23445;DHT22;11895;48.738;9.320;2023-03-14T19:21:08;6.40;99.90
23445;DHT22;11895;48.738;9.320;2023-03-14T19:23:38;6.30;99.90
23445;DHT22;11895;48.738;9.320;2023-03-14T19:26:08;6.40;99.90
23445;DHT22;11895;48.738;9.320;2023-03-14T19:28:35;6.40;99.90
23445;DHT22;11895;48.738;9.320;2023-03-14T19:31:03;6.40;99.90
23445;DHT22;11895;48.738;9.320;2023-03-14T19:33:31;6.30;99.90
23445;DHT22;11895;48.738;9.320;2023-03-14T19:35:58;6.30;99.90
23445;DHT22;11895;48.738;9.320;2023-03-14T19:38:25;6.30;99.90
23445;DHT22;11895;48.738;9.320;2023-03-14T19:40:56;6.30;99.90
23445;DHT22;11895;48.738;9.320;2023-03-14T19:43:25;6.30;99.90
23445;DHT22;11895;48.738;9.320;2023-03-14T19:45:53;6.30;99.90
23445;DHT22;11895;48.738;9.320;2023-03-14T19:48:21;6.30;99.90
23445;DHT22;11895;48.738;9.320;2023-03-14T19:50:55;6.30;99.90
23445;DHT22;11895;48.738;9.320;2023-03-14T19:53:25;6.40;99.90
23445;DHT22;11895;48.738;9.320;2023-03-14T19:55:52;6.60;99.90
23445;DHT22;11895;48.738;9.320;2023-03-14T19:58:19;6.60;99.90
23445;DHT22;11895;48.738;9.320;2023-03-14T20:00:47;6.50;99.90
23445;DHT22;11895;48.738;9.320;2023-03-14T20:03:15;6.70;99.90
23445;DHT22;11895;48.738;9.320;2023-03-14T20:05:43;6.50;99.90
23445;DHT22;11895;48.738;9.320;2023-03-14T20:08:10;6.60;99.90
23445;DHT22;11895;48.738;9.320;2023-03-14T20:10:38;6.60;99.90
23445;DHT22;11895;48.738;9.320;2023-03-14T20:13:06;6.70;99.90
23445;DHT22;11895;48.738;9.320;2023-03-14T20:15:49;6.70;99.90
23445;DHT22;11895;48.738;9.320;2023-03-14T20:18:19;6.70;99.90
23445;DHT22;11895;48.738;9.320;2023-03-14T20:20:50;6.80;99.90
23445;DHT22;11895;48.738;9.320;2023-03-14T20:23:21;6.80;99.90
23445;DHT22;11895;48.738;9.320;2023-03-14T20:25:52;6.80;99.90
23445;DHT22;11895;48.738;9.320;2023-03-14T20:28:23;6.70;99.90
23445;DHT22;11895;48.738;9.320;2023-03-14T20:30:54;6.80;99.90
23445;DHT22;11895;48.738;9.320;2023-03-14T20:33:21;6.80;99.90
23445;DHT22;11895;48.738;9.320;2023-03-14T20:35:52;6.80;99.90
23445;DHT22;11895;48.738;9.320;2023-03-14T20:38:22;6.80;99.90
23445;DHT22;11895;48.738;9.320;2023-03-14T20:40:56;6.80;99.90
23445;DHT22;11895;48.738;9.320;2023-03-14T20:43:25;6.80;99.90
23445;DHT22;11895;48.738;9.320;2023-03-14T20:45:54;6.80;99.90
23445;DHT22;11895;48.738;9.320;2023-03-14T20:48:23;6.70;99.90
23445;DHT22;11895;48.738;9.320;2023-03-14T20:50:53;6.80;99.90
23445;DHT22;11895;48.738;9.320;2023-03-14T20:53:20;6.80;99.90
23445;DHT22;11895;48.738;9.320;2023-03-14T20:55:48;6.70;99.90
23445;DHT22;11895;48.738;9.320;2023-03-14T20:58:16;6.80;99.90
23445;DHT22;11895;48.738;9.320;2023-03-14T21:00:47;7.00;99.90
23445;DHT22;11895;48.738;9.320;2023-03-14T21:03:16;7.10;99.90
23445;DHT22;11895;48.738;9.320;2023-03-14T21:05:46;7.10;99.90
23445;DHT22;11895;48.738;9.320;2023-03-14T21:08:14;7.10;99.90
23445;DHT22;11895;48.738;9.320;2023-03-14T21:10:51;7.10;99.90
23445;DHT22;11895;48.738;9.320;2023-03-14T21:13:21;7.20;99.90
23445;DHT22;11895;48.738;9.320;2023-03-14T21:15:49;7.30;99.90
23445;DHT22;11895;48.738;9.320;2023-03-14T21:18:17;7.30;99.90
23445;DHT22;11895;48.738;9.320;2023-03-14T21:20:44;7.30;99.90
23445;DHT22;11895;48.738;9.320;2023-03-14T21:23:11;7.40;99.90
23445;DHT22;11895;48.738;9.320;2023-03-14T21:25:41;7.50;99.90
23445;DHT22;11895;48.738;9.320;2023-03-14T21:28:10;7.40;99.90
23445;DHT22;11895;48.738;9.320;2023-03-14T21:30:38;7.40;99.90
23445;DHT22;11895;48.738;9.320;2023-03-14T21:33:09;7.30;99.90
23445;DHT22;11895;48.738;9.320;2023-03-14T21:35:36;7.30;99.90
23445;DHT22;11895;48.738;9.320;2023-03-14T21:38:03;7.20;99.90
23445;DHT22;11895;48.738;9.320;2023-03-14T21:40:30;7.10;99.90
23445;DHT22;11895;48.738;9.320;2023-03-14T21:42:58;7.30;99.90
23445;DHT22;11895;48.738;9.320;2023-03-14T21:45:27;6.70;99.90
23445;DHT22;11895;48.738;9.320;2023-03-14T21:47:56;6.70;99.90
23445;DHT22;11895;48.738;9.320;2023-03-14T21:50:24;6.60;99.90
23445;DHT22;11895;48.738;9.320;2023-03-14T21:52:52;6.80;99.90
23445;DHT22;11895;48.738;9.320;2023-03-14T21:55:23;6.80;99.90
23445;DHT22;11895;48.738;9.320;2023-03-14T21:57:52;6.80;99.90
23445;DHT22;11895;48.738;9.320;2023-03-14T22:00:21;6.70;99.90
23445;DHT22;11895;48.738;9.320;2023-03-14T22:02:52;6.90;99.90
23445;DHT22;11895;48.738;9.320;2023-03-14T22:05:45;6.80;99.90
23445;DHT22;11895;48.738;9.320;2023-03-14T22:08:13;6.50;99.90
23445;DHT22;11895;48.738;9.320;2023-03-14T22:10:44;6.50;99.90
23445;DHT22;11895;48.738;9.320;2023-03-14T22:13:22;6.40;99.90
23445;DHT22;11895;48.738;9.320;2023-03-14T22:15:51;6.40;99.90
23445;DHT22;11895;48.738;9.320;2023-03-14T22:18:21;6.30;99.90
23445;DHT22;11895;48.738;9.320;2023-03-14T22:20:51;7.10;99.90
23445;DHT22;11895;48.738;9.320;2023-03-14T22:23:21;6.10;99.90
23445;DHT22;11895;48.738;9.320;2023-03-14T22:25:49;6.10;99.90
23445;DHT22;11895;48.738;9.320;2023-03-14T22:28:16;6.10;99.90
23445;DHT22;11895;48.738;9.320;2023-03-14T22:30:45;6.10;99.90
23445;DHT22;11895;48.738;9.320;2023-03-14T22:33:17;6.20;99.90
23445;DHT22;11895;48.738;9.320;2023-03-14T22:35:48;6.10;99.90
23445;DHT22;11895;48.738;9.320;2023-03-14T22:38:21;6.10;99.90
23445;DHT22;11895;48.738;9.320;2023-03-14T22:40:48;6.10;99.90
23445;DHT22;11895;48.738;9.320;2023-03-14T22:43:16;6.00;99.90
23445;DHT22;11895;48.738;9.320;2023-03-14T22:45:46;6.10;99.90
23445;DHT22;11895;48.738;9.320;2023-03-14T22:48:27;6.30;99.90
23445;DHT22;11895;48.738;9.320;2023-03-14T22:50:55;6.90;99.90
23445;DHT22;11895;48.738;9.320;2023-03-14T22:53:23;5.80;99.90
23445;DHT22;11895;48.738;9.320;2023-03-14T22:55:58;5.40;99.90
23445;DHT22;11895;48.738;9.320;2023-03-14T22:58:29;5.20;99.90
23445;DHT22;11895;48.738;9.320;2023-03-14T23:00:56;5.00;99.90
23445;DHT22;11895;48.738;9.320;2023-03-14T23:03:26;4.80;99.90
23445;DHT22;11895;48.738;9.320;2023-03-14T23:05:56;4.50;99.90
23445;DHT22;11895;48.738;9.320;2023-03-14T23:08:23;4.40;99.90
23445;DHT22;11895;48.738;9.320;2023-03-14T23:10:57;4.30;99.90
23445;DHT22;11895;48.738;9.320;2023-03-14T23:13:27;4.20;99.90
23445;DHT22;11895;48.738;9.320;2023-03-14T23:15:57;4.10;99.90
23445;DHT22;11895;48.738;9.320;2023-03-14T23:21:03;4.30;99.90
23445;DHT22;11895;48.738;9.320;2023-03-14T23:23:38;4.10;99.90
23445;DHT22;11895;48.738;9.320;2023-03-14T23:36:02;3.70;99.90
23445;DHT22;11895;48.738;9.320;2023-03-14T23:38:31;3.50;99.90
23445;DHT22;11895;48.738;9.320;2023-03-14T23:40:59;3.50;99.90
23445;DHT22;11895;48.738;9.320;2023-03-14T23:43:28;3.60;99.90
23445;DHT22;11895;48.738;9.320;2023-03-14T23:45:55;3.40;99.90
23445;DHT22;11895;48.738;9.320;2023-03-14T23:48:27;3.70;99.90
23445;DHT22;11895;48.738;9.320;2023-03-14T23:53:29;3.20;99.90
23445;DHT22;11895;48.738;9.320;2023-03-14T23:55:58;3.10;99.90
23445;DHT22;11895;48.738;9.320;2023-03-14T23:58:25;3.10;99.90
